sensor_id;sensor_type;location;lat;lon;timestamp;pressure;altitude;pressure_sealevel;temperature;humidity
63808;BME280;49961;43.970;22.868;2023-03-14T00:00:48;101700.69;;;4.66;100.00
63808;BME280;49961;43.970;22.868;2023-03-14T00:01:48;101693.63;;;4.65;100.00
63808;BME280;49961;43.970;22.868;2023-03-14T00:02:53;101697.09;;;4.62;100.00
63808;BME280;49961;43.970;22.868;2023-03-14T00:03:53;101699.41;;;4.60;100.00
63808;BME280;49961;43.970;22.868;2023-03-14T00:04:55;101694.72;;;4.61;100.00
63808;BME280;49961;43.970;22.868;2023-03-14T00:05:56;101690.00;;;4.61;100.00
63808;BME280;49961;43.970;22.868;2023-03-14T00:06:56;101691.53;;;4.59;100.00
63808;BME280;49961;43.970;22.868;2023-03-14T00:07:57;101692.69;;;4.58;100.00
63808;BME280;49961;43.970;22.868;2023-03-14T00:08:57;101694.66;;;4.57;100.00
63808;BME280;49961;43.970;22.868;2023-03-14T00:09:58;101683.59;;;4.54;100.00
63808;BME280;49961;43.970;22.868;2023-03-14T00:11:04;101698.44;;;4.49;100.00
63808;BME280;49961;43.970;22.868;2023-03-14T00:12:05;101577.59;;;3.78;100.00
63808;BME280;49961;43.970;22.868;2023-03-14T00:13:07;101527.00;;;3.53;100.00
63808;BME280;49961;43.970;22.868;2023-03-14T00:14:08;101670.44;;;4.40;100.00
63808;BME280;49961;43.970;22.868;2023-03-14T00:15:09;101678.38;;;4.45;100.00
63808;BME280;49961;43.970;22.868;2023-03-14T00:16:11;101681.09;;;4.45;100.00
63808;BME280;49961;43.970;22.868;2023-03-14T00:17:12;101683.78;;;4.42;100.00
63808;BME280;49961;43.970;22.868;2023-03-14T00:18:13;101669.09;;;4.31;100.00
63808;BME280;49961;43.970;22.868;2023-03-14T00:19:14;101682.63;;;4.43;100.00
63808;BME280;49961;43.970;22.868;2023-03-14T00:20:15;101684.66;;;4.46;100.00
63808;BME280;49961;43.970;22.868;2023-03-14T00:21:15;101690.56;;;4.48;100.00
63808;BME280;49961;43.970;22.868;2023-03-14T00:22:15;101695.25;;;4.47;100.00
63808;BME280;49961;43.970;22.868;2023-03-14T00:23:16;101598.44;;;3.83;100.00
63808;BME280;49961;43.970;22.868;2023-03-14T00:24:16;101661.59;;;4.28;100.00
63808;BME280;49961;43.970;22.868;2023-03-14T00:25:17;101687.72;;;4.41;100.00
63808;BME280;49961;43.970;22.868;2023-03-14T00:26:20;101669.41;;;4.26;100.00
63808;BME280;49961;43.970;22.868;2023-03-14T00:27:21;101680.78;;;4.28;100.00
63808;BME280;49961;43.970;22.868;2023-03-14T00:28:21;101688.09;;;4.20;100.00
63808;BME280;49961;43.970;22.868;2023-03-14T00:29:21;101681.25;;;4.11;100.00
63808;BME280;49961;43.970;22.868;2023-03-14T00:30:22;101668.50;;;3.99;100.00
63808;BME280;49961;43.970;22.868;2023-03-14T00:31:22;101672.03;;;4.00;100.00
63808;BME280;49961;43.970;22.868;2023-03-14T00:32:23;101674.28;;;3.94;100.00
63808;BME280;49961;43.970;22.868;2023-03-14T00:33:23;101558.00;;;3.19;100.00
63808;BME280;49961;43.970;22.868;2023-03-14T00:34:28;101653.84;;;3.73;100.00
63808;BME280;49961;43.970;22.868;2023-03-14T00:35:29;101670.19;;;3.85;100.00
63808;BME280;49961;43.970;22.868;2023-03-14T00:36:29;101668.94;;;3.82;100.00
63808;BME280;49961;43.970;22.868;2023-03-14T00:37:29;101671.25;;;3.80;100.00
63808;BME280;49961;43.970;22.868;2023-03-14T00:38:31;101667.78;;;3.83;100.00
63808;BME280;49961;43.970;22.868;2023-03-14T00:39:31;101653.50;;;3.74;100.00
63808;BME280;49961;43.970;22.868;2023-03-14T00:40:32;101678.34;;;3.81;100.00
63808;BME280;49961;43.970;22.868;2023-03-14T00:41:32;101663.81;;;3.81;100.00
63808;BME280;49961;43.970;22.868;2023-03-14T00:42:33;101654.78;;;3.80;100.00
63808;BME280;49961;43.970;22.868;2023-03-14T00:43:34;101671.97;;;3.77;100.00
63808;BME280;49961;43.970;22.868;2023-03-14T00:44:34;101666.91;;;3.79;100.00
63808;BME280;49961;43.970;22.868;2023-03-14T00:45:35;101668.50;;;3.80;100.00
63808;BME280;49961;43.970;22.868;2023-03-14T00:46:35;101643.19;;;3.68;100.00
63808;BME280;49961;43.970;22.868;2023-03-14T00:47:36;101662.66;;;3.82;100.00
63808;BME280;49961;43.970;22.868;2023-03-14T00:48:36;101650.47;;;3.79;100.00
63808;BME280;49961;43.970;22.868;2023-03-14T00:49:37;101655.66;;;3.84;100.00
63808;BME280;49961;43.970;22.868;2023-03-14T00:50:37;101654.38;;;3.78;100.00
63808;BME280;49961;43.970;22.868;2023-03-14T00:51:38;101656.81;;;3.83;100.00
63808;BME280;49961;43.970;22.868;2023-03-14T00:52:38;101654.06;;;3.83;100.00
63808;BME280;49961;43.970;22.868;2023-03-14T00:53:39;101654.13;;;3.87;100.00
63808;BME280;49961;43.970;22.868;2023-03-14T00:54:39;101652.16;;;3.84;100.00
63808;BME280;49961;43.970;22.868;2023-03-14T00:55:41;101654.88;;;3.84;100.00
63808;BME280;49961;43.970;22.868;2023-03-14T00:56:42;101657.63;;;3.84;100.00
63808;BME280;49961;43.970;22.868;2023-03-14T00:57:43;101666.69;;;3.88;100.00
63808;BME280;49961;43.970;22.868;2023-03-14T00:58:44;101543.91;;;3.17;100.00
63808;BME280;49961;43.970;22.868;2023-03-14T00:59:44;101662.72;;;3.85;100.00
63808;BME280;49961;43.970;22.868;2023-03-14T01:00:45;101664.69;;;3.85;100.00
63808;BME280;49961;43.970;22.868;2023-03-14T01:01:46;101667.38;;;3.81;100.00
63808;BME280;49961;43.970;22.868;2023-03-14T01:02:46;101656.47;;;3.85;100.00
63808;BME280;49961;43.970;22.868;2023-03-14T01:03:47;101661.88;;;3.81;100.00
63808;BME280;49961;43.970;22.868;2023-03-14T01:04:48;101665.75;;;3.80;100.00
63808;BME280;49961;43.970;22.868;2023-03-14T01:05:50;101671.19;;;3.77;100.00
63808;BME280;49961;43.970;22.868;2023-03-14T01:06:50;101671.63;;;3.79;100.00
63808;BME280;49961;43.970;22.868;2023-03-14T01:07:51;101671.25;;;3.80;100.00
63808;BME280;49961;43.970;22.868;2023-03-14T01:08:52;101664.75;;;3.69;100.00
63808;BME280;49961;43.970;22.868;2023-03-14T01:09:53;101640.53;;;3.52;100.00
63808;BME280;49961;43.970;22.868;2023-03-14T01:10:53;101674.94;;;3.69;100.00
63808;BME280;49961;43.970;22.868;2023-03-14T01:11:53;101636.78;;;3.41;100.00
63808;BME280;49961;43.970;22.868;2023-03-14T01:12:54;101671.97;;;3.58;100.00
63808;BME280;49961;43.970;22.868;2023-03-14T01:13:55;101677.81;;;3.57;100.00
63808;BME280;49961;43.970;22.868;2023-03-14T01:14:55;101678.59;;;3.57;100.00
63808;BME280;49961;43.970;22.868;2023-03-14T01:16:01;101609.50;;;3.10;100.00
63808;BME280;49961;43.970;22.868;2023-03-14T01:17:01;101678.59;;;3.57;100.00
63808;BME280;49961;43.970;22.868;2023-03-14T01:18:02;101674.63;;;3.55;100.00
63808;BME280;49961;43.970;22.868;2023-03-14T01:19:03;101675.63;;;3.47;100.00
63808;BME280;49961;43.970;22.868;2023-03-14T01:20:04;101649.34;;;3.27;100.00
63808;BME280;49961;43.970;22.868;2023-03-14T01:21:12;101669.78;;;3.48;100.00
63808;BME280;49961;43.970;22.868;2023-03-14T01:22:13;101675.97;;;3.45;100.00
63808;BME280;49961;43.970;22.868;2023-03-14T01:23:13;101679.53;;;3.46;100.00
63808;BME280;49961;43.970;22.868;2023-03-14T01:24:14;101659.75;;;3.37;100.00
63808;BME280;49961;43.970;22.868;2023-03-14T01:25:16;101666.63;;;3.46;100.00
63808;BME280;49961;43.970;22.868;2023-03-14T01:26:18;101669.78;;;3.48;100.00
63808;BME280;49961;43.970;22.868;2023-03-14T01:27:19;101672.59;;;3.52;100.00
63808;BME280;49961;43.970;22.868;2023-03-14T01:28:19;101671.38;;;3.49;100.00
63808;BME280;49961;43.970;22.868;2023-03-14T01:29:20;101504.13;;;2.51;100.00
63808;BME280;49961;43.970;22.868;2023-03-14T01:30:20;101667.84;;;3.49;100.00
63808;BME280;49961;43.970;22.868;2023-03-14T01:31:21;101684.31;;;3.49;100.00
63808;BME280;49961;43.970;22.868;2023-03-14T01:32:22;101666.34;;;3.51;100.00
63808;BME280;49961;43.970;22.868;2023-03-14T01:33:24;101661.34;;;3.57;100.00
63808;BME280;49961;43.970;22.868;2023-03-14T01:34:24;101653.59;;;3.59;100.00
63808;BME280;49961;43.970;22.868;2023-03-14T01:35:24;101640.53;;;3.52;100.00
63808;BME280;49961;43.970;22.868;2023-03-14T01:36:25;101663.53;;;3.67;100.00
63808;BME280;49961;43.970;22.868;2023-03-14T01:37:25;101662.81;;;3.70;100.00
63808;BME280;49961;43.970;22.868;2023-03-14T01:38:26;101660.00;;;3.66;100.00
63808;BME280;49961;43.970;22.868;2023-03-14T01:39:26;101669.38;;;3.65;100.00
63808;BME280;49961;43.970;22.868;2023-03-14T01:40:28;101638.06;;;3.47;100.00
63808;BME280;49961;43.970;22.868;2023-03-14T01:41:28;101666.34;;;3.51;100.00
63808;BME280;49961;43.970;22.868;2023-03-14T01:42:29;101666.63;;;3.46;100.00
63808;BME280;49961;43.970;22.868;2023-03-14T01:43:30;101659.91;;;3.44;100.00
63808;BME280;49961;43.970;22.868;2023-03-14T01:44:54;101663.44;;;3.44;100.00
63808;BME280;49961;43.970;22.868;2023-03-14T01:46:51;101663.00;;;3.42;100.00
63808;BME280;49961;43.970;22.868;2023-03-14T01:47:45;101660.97;;;3.39;100.00
63808;BME280;49961;43.970;22.868;2023-03-14T01:50:08;101645.63;;;3.35;100.00
63808;BME280;49961;43.970;22.868;2023-03-14T01:51:17;101645.97;;;3.33;100.00
63808;BME280;49961;43.970;22.868;2023-03-14T01:52:45;101644.47;;;3.36;100.00
63808;BME280;49961;43.970;22.868;2023-03-14T01:53:49;101644.94;;;3.38;100.00
63808;BME280;49961;43.970;22.868;2023-03-14T01:54:54;101648.44;;;3.38;100.00
63808;BME280;49961;43.970;22.868;2023-03-14T01:55:56;101637.94;;;3.40;100.00
63808;BME280;49961;43.970;22.868;2023-03-14T01:57:08;101633.28;;;3.44;100.00
63808;BME280;49961;43.970;22.868;2023-03-14T01:58:10;101632.59;;;3.47;100.00
63808;BME280;49961;43.970;22.868;2023-03-14T01:59:11;101618.81;;;3.44;100.00
63808;BME280;49961;43.970;22.868;2023-03-14T02:00:18;101656.16;;;3.52;100.00
63808;BME280;49961;43.970;22.868;2023-03-14T02:01:24;101624.84;;;3.53;100.00
63808;BME280;49961;43.970;22.868;2023-03-14T02:02:26;101628.91;;;3.59;100.00
63808;BME280;49961;43.970;22.868;2023-03-14T02:03:29;101548.09;;;3.11;100.00
63808;BME280;49961;43.970;22.868;2023-03-14T02:04:32;101629.06;;;3.66;100.00
63808;BME280;49961;43.970;22.868;2023-03-14T02:05:38;101632.31;;;3.71;100.00
63808;BME280;49961;43.970;22.868;2023-03-14T02:06:47;101624.84;;;3.72;100.00
63808;BME280;49961;43.970;22.868;2023-03-14T02:07:54;101617.84;;;3.74;100.00
63808;BME280;49961;43.970;22.868;2023-03-14T02:08:55;101619.03;;;3.73;100.00
63808;BME280;49961;43.970;22.868;2023-03-14T02:09:56;101626.81;;;3.71;100.00
63808;BME280;49961;43.970;22.868;2023-03-14T02:10:58;101610.28;;;3.68;100.00
63808;BME280;49961;43.970;22.868;2023-03-14T02:11:59;101629.13;;;3.69;100.00
63808;BME280;49961;43.970;22.868;2023-03-14T02:13:02;101618.66;;;3.75;100.00
63808;BME280;49961;43.970;22.868;2023-03-14T02:14:03;101624.50;;;3.73;100.00
63808;BME280;49961;43.970;22.868;2023-03-14T02:15:04;101646.06;;;3.75;100.00
63808;BME280;49961;43.970;22.868;2023-03-14T02:16:05;101618.66;;;3.75;100.00
63808;BME280;49961;43.970;22.868;2023-03-14T02:17:06;101614.47;;;3.81;100.00
63808;BME280;49961;43.970;22.868;2023-03-14T02:18:08;101604.97;;;3.75;100.00
63808;BME280;49961;43.970;22.868;2023-03-14T02:19:10;101613.25;;;3.78;100.00
63808;BME280;49961;43.970;22.868;2023-03-14T02:22:21;101463.41;;;2.84;100.00
63808;BME280;49961;43.970;22.868;2023-03-14T02:24:57;101615.19;;;3.78;100.00
63808;BME280;49961;43.970;22.868;2023-03-14T02:26:11;101607.34;;;3.76;100.00
63808;BME280;49961;43.970;22.868;2023-03-14T02:27:17;101600.25;;;3.75;100.00
63808;BME280;49961;43.970;22.868;2023-03-14T02:28:19;101462.75;;;2.90;100.00
63808;BME280;49961;43.970;22.868;2023-03-14T02:29:20;101611.38;;;3.82;100.00
63808;BME280;49961;43.970;22.868;2023-03-14T02:30:23;101607.81;;;3.82;100.00
63808;BME280;49961;43.970;22.868;2023-03-14T02:31:24;101605.59;;;3.87;100.00
63808;BME280;49961;43.970;22.868;2023-03-14T02:32:25;101604.44;;;3.88;100.00
63808;BME280;49961;43.970;22.868;2023-03-14T02:33:27;101605.28;;;3.92;100.00
63808;BME280;49961;43.970;22.868;2023-03-14T02:34:28;101604.13;;;3.93;100.00
63808;BME280;49961;43.970;22.868;2023-03-14T02:35:33;101585.16;;;3.85;100.00
63808;BME280;49961;43.970;22.868;2023-03-14T02:36:34;101606.94;;;3.97;100.00
63808;BME280;49961;43.970;22.868;2023-03-14T02:37:39;101589.97;;;3.91;100.00
63808;BME280;49961;43.970;22.868;2023-03-14T02:38:50;101561.38;;;3.70;100.00
63808;BME280;49961;43.970;22.868;2023-03-14T02:39:52;101590.97;;;4.02;100.00
63808;BME280;49961;43.970;22.868;2023-03-14T02:40:53;101603.53;;;4.03;100.00
63808;BME280;49961;43.970;22.868;2023-03-14T02:41:53;101595.34;;;4.07;100.00
63808;BME280;49961;43.970;22.868;2023-03-14T02:42:53;101593.44;;;4.07;100.00
63808;BME280;49961;43.970;22.868;2023-03-14T02:43:54;101593.44;;;4.07;100.00
63808;BME280;49961;43.970;22.868;2023-03-14T02:45:27;101593.44;;;4.07;100.00
63808;BME280;49961;43.970;22.868;2023-03-14T02:46:21;101594.19;;;4.08;100.00
63808;BME280;49961;43.970;22.868;2023-03-14T02:47:26;101583.22;;;4.08;100.00
63808;BME280;49961;43.970;22.868;2023-03-14T02:49:33;101523.25;;;3.61;100.00
63808;BME280;49961;43.970;22.868;2023-03-14T02:50:34;101484.41;;;3.37;100.00
63808;BME280;49961;43.970;22.868;2023-03-14T02:51:35;101590.59;;;4.04;100.00
63808;BME280;49961;43.970;22.868;2023-03-14T02:52:35;101589.47;;;4.05;100.00
63808;BME280;49961;43.970;22.868;2023-03-14T02:53:37;101592.97;;;4.05;100.00
63808;BME280;49961;43.970;22.868;2023-03-14T02:54:38;101589.81;;;4.03;100.00
63808;BME280;49961;43.970;22.868;2023-03-14T02:55:38;101591.34;;;4.01;100.00
63808;BME280;49961;43.970;22.868;2023-03-14T02:56:38;101565.47;;;3.79;100.00
63808;BME280;49961;43.970;22.868;2023-03-14T02:57:39;101588.53;;;3.97;100.00
63808;BME280;49961;43.970;22.868;2023-03-14T02:58:39;101592.06;;;3.98;100.00
63808;BME280;49961;43.970;22.868;2023-03-14T02:59:40;101597.84;;;3.93;100.00
63808;BME280;49961;43.970;22.868;2023-03-14T03:00:40;101495.19;;;3.26;100.00
63808;BME280;49961;43.970;22.868;2023-03-14T03:01:41;101597.72;;;3.86;100.00
63808;BME280;49961;43.970;22.868;2023-03-14T03:02:41;101599.25;;;3.83;100.00
63808;BME280;49961;43.970;22.868;2023-03-14T03:03:41;101595.34;;;3.84;100.00
63808;BME280;49961;43.970;22.868;2023-03-14T03:04:42;101596.50;;;3.83;100.00
63808;BME280;49961;43.970;22.868;2023-03-14T03:05:42;101594.63;;;3.87;100.00
63808;BME280;49961;43.970;22.868;2023-03-14T03:06:43;101586.34;;;3.84;100.00
63808;BME280;49961;43.970;22.868;2023-03-14T03:07:44;101591.81;;;3.84;100.00
63808;BME280;49961;43.970;22.868;2023-03-14T03:08:44;101587.47;;;3.83;100.00
63808;BME280;49961;43.970;22.868;2023-03-14T03:09:45;101589.13;;;3.87;100.00
63808;BME280;49961;43.970;22.868;2023-03-14T03:10:46;101593.47;;;3.88;100.00
63808;BME280;49961;43.970;22.868;2023-03-14T03:11:46;101593.09;;;3.90;100.00
63808;BME280;49961;43.970;22.868;2023-03-14T03:12:47;101583.94;;;3.82;100.00
63808;BME280;49961;43.970;22.868;2023-03-14T03:13:47;101595.75;;;3.86;100.00
63808;BME280;49961;43.970;22.868;2023-03-14T03:14:47;101469.00;;;3.10;100.00
63808;BME280;49961;43.970;22.868;2023-03-14T03:15:48;101598.59;;;3.90;100.00
63808;BME280;49961;43.970;22.868;2023-03-14T03:16:48;101589.19;;;3.91;100.00
63808;BME280;49961;43.970;22.868;2023-03-14T03:17:49;101474.19;;;3.15;100.00
63808;BME280;49961;43.970;22.868;2023-03-14T03:18:49;101597.44;;;3.91;100.00
63808;BME280;49961;43.970;22.868;2023-03-14T03:19:50;101599.34;;;3.90;100.00
63808;BME280;49961;43.970;22.868;2023-03-14T03:20:50;101603.69;;;3.91;100.00
63808;BME280;49961;43.970;22.868;2023-03-14T03:21:50;101609.47;;;3.86;100.00
63808;BME280;49961;43.970;22.868;2023-03-14T03:22:51;101608.34;;;3.87;100.00
63808;BME280;49961;43.970;22.868;2023-03-14T03:23:52;101614.47;;;3.81;100.00
63808;BME280;49961;43.970;22.868;2023-03-14T03:24:53;101615.56;;;3.76;100.00
63808;BME280;49961;43.970;22.868;2023-03-14T03:25:53;101523.22;;;3.20;100.00
63808;BME280;49961;43.970;22.868;2023-03-14T03:26:53;101608.00;;;3.70;100.00
63808;BME280;49961;43.970;22.868;2023-03-14T03:27:54;101612.59;;;3.66;100.00
63808;BME280;49961;43.970;22.868;2023-03-14T03:28:55;101615.28;;;3.62;100.00
63808;BME280;49961;43.970;22.868;2023-03-14T03:29:55;101613.25;;;3.59;100.00
63808;BME280;49961;43.970;22.868;2023-03-14T03:30:55;101622.56;;;3.55;100.00
63808;BME280;49961;43.970;22.868;2023-03-14T03:31:56;101618.25;;;3.54;100.00
63808;BME280;49961;43.970;22.868;2023-03-14T03:32:56;101615.84;;;3.52;100.00
63808;BME280;49961;43.970;22.868;2023-03-14T03:33:57;101616.22;;;3.51;100.00
63808;BME280;49961;43.970;22.868;2023-03-14T03:34:57;101605.06;;;3.40;100.00
63808;BME280;49961;43.970;22.868;2023-03-14T03:35:58;101616.78;;;3.41;100.00
63808;BME280;49961;43.970;22.868;2023-03-14T03:36:58;101596.16;;;3.09;100.00
63808;BME280;49961;43.970;22.868;2023-03-14T03:37:59;101619.88;;;3.39;100.00
63808;BME280;49961;43.970;22.868;2023-03-14T03:38:59;101602.94;;;3.34;100.00
63808;BME280;49961;43.970;22.868;2023-03-14T03:40:00;101595.72;;;3.26;100.00
63808;BME280;49961;43.970;22.868;2023-03-14T03:41:07;101617.00;;;3.32;100.00
63808;BME280;49961;43.970;22.868;2023-03-14T03:42:08;101512.28;;;2.66;100.00
63808;BME280;49961;43.970;22.868;2023-03-14T03:43:08;101600.31;;;3.22;100.00
63808;BME280;49961;43.970;22.868;2023-03-14T03:44:08;101607.56;;;3.30;100.00
63808;BME280;49961;43.970;22.868;2023-03-14T03:45:09;101613.03;;;3.30;100.00
63808;BME280;49961;43.970;22.868;2023-03-14T03:46:10;101609.94;;;3.31;100.00
63808;BME280;49961;43.970;22.868;2023-03-14T03:47:10;101578.63;;;3.13;100.00
63808;BME280;49961;43.970;22.868;2023-03-14T03:48:11;101613.84;;;3.30;100.00
63808;BME280;49961;43.970;22.868;2023-03-14T03:49:11;101599.75;;;3.32;100.00
63808;BME280;49961;43.970;22.868;2023-03-14T03:50:11;101603.72;;;3.34;100.00
63808;BME280;49961;43.970;22.868;2023-03-14T03:51:14;101611.16;;;3.34;100.00
63808;BME280;49961;43.970;22.868;2023-03-14T03:52:14;101487.13;;;2.61;100.00
63808;BME280;49961;43.970;22.868;2023-03-14T03:53:15;101602.94;;;3.34;100.00
63808;BME280;49961;43.970;22.868;2023-03-14T03:54:15;101607.97;;;3.32;100.00
63808;BME280;49961;43.970;22.868;2023-03-14T03:55:16;101597.69;;;3.25;100.00
63808;BME280;49961;43.970;22.868;2023-03-14T03:56:16;101522.25;;;2.74;100.00
63808;BME280;49961;43.970;22.868;2023-03-14T03:57:17;101605.25;;;3.32;100.00
63808;BME280;49961;43.970;22.868;2023-03-14T03:58:17;101613.47;;;3.32;100.00
63808;BME280;49961;43.970;22.868;2023-03-14T03:59:18;101582.94;;;3.14;100.00
63808;BME280;49961;43.970;22.868;2023-03-14T04:00:19;101609.94;;;3.31;100.00
63808;BME280;49961;43.970;22.868;2023-03-14T04:01:19;101602.72;;;3.23;100.00
63808;BME280;49961;43.970;22.868;2023-03-14T04:02:20;101612.22;;;3.29;100.00
63808;BME280;49961;43.970;22.868;2023-03-14T04:03:20;101613.84;;;3.30;100.00
63808;BME280;49961;43.970;22.868;2023-03-14T04:04:20;101614.56;;;3.27;100.00
63808;BME280;49961;43.970;22.868;2023-03-14T04:05:21;101616.88;;;3.25;100.00
63808;BME280;49961;43.970;22.868;2023-03-14T04:06:23;101609.06;;;3.27;100.00
63808;BME280;49961;43.970;22.868;2023-03-14T04:07:23;101601.50;;;3.21;100.00
63808;BME280;49961;43.970;22.868;2023-03-14T04:08:23;101611.44;;;3.29;100.00
63808;BME280;49961;43.970;22.868;2023-03-14T04:09:24;101602.06;;;3.30;100.00
63808;BME280;49961;43.970;22.868;2023-03-14T04:10:24;101596.88;;;3.25;100.00
63808;BME280;49961;43.970;22.868;2023-03-14T04:11:25;101599.69;;;3.28;100.00
63808;BME280;49961;43.970;22.868;2023-03-14T04:12:25;101598.53;;;3.29;100.00
63808;BME280;49961;43.970;22.868;2023-03-14T04:13:27;101596.53;;;3.26;100.00
63808;BME280;49961;43.970;22.868;2023-03-14T04:14:27;101602.78;;;3.27;100.00
63808;BME280;49961;43.970;22.868;2023-03-14T04:15:28;101596.06;;;3.24;100.00
63808;BME280;49961;43.970;22.868;2023-03-14T04:16:29;101594.84;;;3.22;100.00
63808;BME280;49961;43.970;22.868;2023-03-14T04:17:31;101589.81;;;3.24;100.00
63808;BME280;49961;43.970;22.868;2023-03-14T04:18:31;101585.50;;;3.23;100.00
63808;BME280;49961;43.970;22.868;2023-03-14T04:19:32;101586.63;;;3.22;100.00
63808;BME280;49961;43.970;22.868;2023-03-14T04:20:34;101586.22;;;3.20;100.00
63808;BME280;49961;43.970;22.868;2023-03-14T04:21:35;101586.91;;;3.17;100.00
63808;BME280;49961;43.970;22.868;2023-03-14T04:22:35;101588.88;;;3.16;100.00
63808;BME280;49961;43.970;22.868;2023-03-14T04:23:35;101586.84;;;3.13;100.00
63808;BME280;49961;43.970;22.868;2023-03-14T04:24:36;101580.06;;;3.07;100.00
63808;BME280;49961;43.970;22.868;2023-03-14T04:25:37;101573.44;;;3.08;100.00
63808;BME280;49961;43.970;22.868;2023-03-14T04:26:37;101511.88;;;2.64;100.00
63808;BME280;49961;43.970;22.868;2023-03-14T04:27:38;101573.97;;;3.14;100.00
63808;BME280;49961;43.970;22.868;2023-03-14T04:28:38;101537.38;;;2.87;100.00
63808;BME280;49961;43.970;22.868;2023-03-14T04:29:39;101579.44;;;3.14;100.00
63808;BME280;49961;43.970;22.868;2023-03-14T04:30:39;101561.59;;;3.04;100.00
63808;BME280;49961;43.970;22.868;2023-03-14T04:31:40;101479.34;;;2.44;100.00
63808;BME280;49961;43.970;22.868;2023-03-14T04:32:40;101579.38;;;3.10;100.00
63808;BME280;49961;43.970;22.868;2023-03-14T04:33:40;101584.75;;;3.07;100.00
63808;BME280;49961;43.970;22.868;2023-03-14T04:34:41;101570.50;;;2.98;100.00
63808;BME280;49961;43.970;22.868;2023-03-14T04:35:41;101582.75;;;3.04;100.00
63808;BME280;49961;43.970;22.868;2023-03-14T04:36:42;101580.44;;;3.06;100.00
63808;BME280;49961;43.970;22.868;2023-03-14T04:37:42;101586.72;;;3.06;100.00
63808;BME280;49961;43.970;22.868;2023-03-14T04:38:43;101583.63;;;3.08;100.00
63808;BME280;49961;43.970;22.868;2023-03-14T04:39:43;101584.38;;;3.08;100.00
63808;BME280;49961;43.970;22.868;2023-03-14T04:40:44;101593.06;;;3.10;100.00
63808;BME280;49961;43.970;22.868;2023-03-14T04:41:44;101578.09;;;2.89;100.00
63808;BME280;49961;43.970;22.868;2023-03-14T04:42:45;101587.88;;;3.05;100.00
63808;BME280;49961;43.970;22.868;2023-03-14T04:43:46;101585.03;;;3.02;100.00
63808;BME280;49961;43.970;22.868;2023-03-14T04:44:46;101589.00;;;3.04;100.00
63808;BME280;49961;43.970;22.868;2023-03-14T04:45:49;101587.00;;;3.01;100.00
63808;BME280;49961;43.970;22.868;2023-03-14T04:46:49;101577.53;;;2.99;100.00
63808;BME280;49961;43.970;22.868;2023-03-14T04:47:50;101588.06;;;2.97;100.00
63808;BME280;49961;43.970;22.868;2023-03-14T04:48:50;101588.84;;;2.97;100.00
63808;BME280;49961;43.970;22.868;2023-03-14T04:49:51;101592.75;;;2.96;100.00
63808;BME280;49961;43.970;22.868;2023-03-14T04:50:51;101592.31;;;2.94;100.00
63808;BME280;49961;43.970;22.868;2023-03-14T04:51:52;101596.63;;;2.95;100.00
63808;BME280;49961;43.970;22.868;2023-03-14T04:52:52;101594.25;;;2.94;100.00
63808;BME280;49961;43.970;22.868;2023-03-14T04:53:53;101605.47;;;2.89;100.00
63808;BME280;49961;43.970;22.868;2023-03-14T04:54:54;101530.16;;;2.45;100.00
63808;BME280;49961;43.970;22.868;2023-03-14T04:55:55;101598.78;;;2.86;100.00
63808;BME280;49961;43.970;22.868;2023-03-14T04:56:55;101514.50;;;2.26;100.00
63808;BME280;49961;43.970;22.868;2023-03-14T04:57:56;101601.84;;;2.85;100.00
63808;BME280;49961;43.970;22.868;2023-03-14T04:58:56;101482.75;;;2.06;100.00
63808;BME280;49961;43.970;22.868;2023-03-14T04:59:57;101609.19;;;2.81;100.00
63808;BME280;49961;43.970;22.868;2023-03-14T05:01:04;101605.31;;;2.82;100.00
63808;BME280;49961;43.970;22.868;2023-03-14T05:02:05;101591.03;;;2.73;100.00
63808;BME280;49961;43.970;22.868;2023-03-14T05:03:05;101607.59;;;2.80;100.00
63808;BME280;49961;43.970;22.868;2023-03-14T05:04:05;101591.13;;;2.76;100.00
63808;BME280;49961;43.970;22.868;2023-03-14T05:05:06;101603.38;;;2.82;100.00
63808;BME280;49961;43.970;22.868;2023-03-14T05:06:07;101604.53;;;2.81;100.00
63808;BME280;49961;43.970;22.868;2023-03-14T05:07:07;101587.94;;;2.74;100.00
63808;BME280;49961;43.970;22.868;2023-03-14T05:08:08;101606.19;;;2.86;100.00
63808;BME280;49961;43.970;22.868;2023-03-14T05:09:09;101614.78;;;2.84;100.00
63808;BME280;49961;43.970;22.868;2023-03-14T05:10:10;101606.09;;;2.82;100.00
63808;BME280;49961;43.970;22.868;2023-03-14T05:11:11;101602.66;;;2.85;100.00
63808;BME280;49961;43.970;22.868;2023-03-14T05:12:12;101601.94;;;2.88;100.00
63808;BME280;49961;43.970;22.868;2023-03-14T05:13:12;101601.94;;;2.88;100.00
63808;BME280;49961;43.970;22.868;2023-03-14T05:14:13;101611.03;;;2.92;100.00
63808;BME280;49961;43.970;22.868;2023-03-14T05:15:13;101610.75;;;2.97;100.00
63808;BME280;49961;43.970;22.868;2023-03-14T05:16:14;101610.47;;;3.02;100.00
63808;BME280;49961;43.970;22.868;2023-03-14T05:17:14;101609.66;;;3.02;100.00
63808;BME280;49961;43.970;22.868;2023-03-14T05:18:15;101597.13;;;3.01;100.00
63808;BME280;49961;43.970;22.868;2023-03-14T05:19:15;101516.81;;;2.59;100.00
63808;BME280;49961;43.970;22.868;2023-03-14T05:20:15;101603.34;;;3.17;100.00
63808;BME280;49961;43.970;22.868;2023-03-14T05:21:16;101447.53;;;2.20;100.00
63808;BME280;49961;43.970;22.868;2023-03-14T05:22:17;101592.84;;;3.19;100.00
63808;BME280;49961;43.970;22.868;2023-03-14T05:23:17;101592.50;;;3.20;100.00
63808;BME280;49961;43.970;22.868;2023-03-14T05:24:17;101585.50;;;3.23;100.00